createdAt,value
2023-02-17T00:01:30.232Z,5.90
2023-02-17T00:03:57.629Z,5.63
2023-02-17T00:06:26.901Z,7.78
2023-02-17T00:08:54.860Z,5.95
2023-02-17T00:11:21.723Z,7.13
2023-02-17T00:13:48.819Z,8.18
2023-02-17T00:16:27.035Z,5.00
2023-02-17T00:18:56.841Z,6.90
2023-02-17T00:21:26.208Z,6.57
2023-02-17T00:23:53.816Z,6.57
2023-02-17T00:26:21.690Z,5.90
2023-02-17T00:28:49.518Z,6.18
2023-02-17T00:31:19.723Z,6.95
2023-02-17T00:33:46.980Z,6.35
2023-02-17T00:36:19.425Z,6.25
2023-02-17T00:38:50.110Z,7.70
2023-02-17T00:41:18.173Z,6.82
2023-02-17T00:43:45.212Z,6.88
2023-02-17T00:46:12.425Z,7.85
2023-02-17T00:48:40.105Z,8.40
2023-02-17T00:51:07.162Z,6.32
2023-02-17T00:53:34.870Z,7.35
2023-02-17T00:56:02.228Z,5.70
2023-02-17T00:58:29.814Z,7.40
2023-02-17T01:00:57.980Z,6.10
2023-02-17T01:03:25.534Z,7.68
2023-02-17T01:05:54.572Z,9.52
2023-02-17T01:08:22.113Z,8.85
2023-02-17T01:10:50.762Z,6.38
2023-02-17T01:13:18.985Z,7.45
2023-02-17T01:15:50.985Z,6.80
2023-02-17T01:18:19.657Z,7.28
2023-02-17T01:20:46.948Z,8.45
2023-02-17T01:23:15.090Z,8.43
2023-02-17T01:25:45.056Z,10.05
2023-02-17T01:28:16.801Z,6.55
2023-02-17T01:30:43.878Z,7.22
2023-02-17T01:33:13.462Z,8.68
2023-02-17T01:35:40.397Z,8.13
2023-02-17T01:38:07.357Z,6.47
2023-02-17T01:40:34.197Z,7.25
2023-02-17T01:43:01.107Z,8.70
2023-02-17T01:45:34.865Z,8.65
2023-02-17T01:48:18.969Z,6.60
2023-02-17T01:50:54.160Z,7.97
2023-02-17T01:53:26.733Z,10.68
2023-02-17T01:55:54.969Z,8.15
2023-02-17T01:58:24.926Z,6.57
2023-02-17T02:00:54.922Z,10.55
2023-02-17T02:03:22.833Z,5.95
2023-02-17T02:05:50.781Z,8.45
2023-02-17T02:08:17.861Z,10.18
2023-02-17T02:10:44.768Z,6.72
2023-02-17T02:13:11.871Z,7.85
2023-02-17T02:15:56.170Z,6.63
2023-02-17T02:18:44.711Z,9.30
2023-02-17T02:22:01.130Z,7.22
2023-02-17T02:24:49.261Z,8.07
2023-02-17T02:27:42.005Z,9.70
2023-02-17T02:30:19.696Z,7.55
2023-02-17T02:33:15.659Z,8.77
2023-02-17T02:35:59.296Z,13.88
2023-02-17T02:38:26.365Z,6.03
2023-02-17T02:41:04.565Z,4.38
2023-02-17T02:43:32.158Z,9.75
2023-02-17T02:45:59.279Z,7.47
2023-02-17T02:48:26.839Z,7.47
2023-02-17T02:51:16.598Z,7.93
2023-02-17T02:53:55.216Z,5.57
2023-02-17T02:56:36.883Z,7.57
2023-02-17T02:59:03.857Z,7.78
2023-02-17T03:01:43.539Z,6.75
2023-02-17T03:04:28.157Z,5.25
2023-02-17T03:07:21.920Z,7.32
2023-02-17T03:09:51.891Z,4.75
2023-02-17T03:12:20.660Z,4.13
2023-02-17T03:14:50.892Z,4.47
2023-02-17T03:17:17.784Z,4.05
2023-02-17T03:19:48.981Z,4.55
2023-02-17T03:22:40.805Z,3.25
2023-02-17T03:25:08.921Z,6.72
2023-02-17T03:27:36.045Z,10.35
2023-02-17T03:30:04.456Z,5.65
2023-02-17T03:32:31.350Z,6.63
2023-02-17T03:34:58.225Z,8.32
2023-02-17T03:37:25.155Z,6.47
2023-02-17T03:39:52.163Z,7.50
2023-02-17T03:42:19.012Z,6.93
2023-02-17T03:44:45.772Z,7.05
2023-02-17T03:47:12.779Z,6.63
2023-02-17T03:49:40.488Z,8.20
2023-02-17T03:52:07.515Z,11.20
2023-02-17T03:54:34.515Z,8.88
2023-02-17T03:57:01.299Z,8.40
2023-02-17T03:59:28.605Z,7.78
2023-02-17T04:01:55.658Z,6.22
2023-02-17T04:04:22.578Z,6.15
2023-02-17T04:06:49.520Z,5.70
2023-02-17T04:09:16.319Z,4.68
2023-02-17T04:11:43.822Z,7.78
2023-02-17T04:14:10.825Z,7.25
2023-02-17T04:16:39.345Z,6.32
2023-02-17T04:19:07.604Z,7.53
2023-02-17T04:21:35.710Z,6.45
2023-02-17T04:24:03.562Z,7.88
2023-02-17T04:26:31.346Z,7.82
2023-02-17T04:28:58.272Z,5.88
2023-02-17T04:31:28.172Z,9.57
2023-02-17T04:33:55.226Z,8.25
2023-02-17T04:36:22.592Z,7.47
2023-02-17T04:38:49.469Z,4.20
2023-02-17T04:41:16.268Z,6.68
2023-02-17T04:43:43.172Z,4.65
2023-02-17T04:46:11.939Z,6.53
2023-02-17T04:48:38.969Z,6.72
2023-02-17T04:51:06.004Z,8.27
2023-02-17T04:53:33.258Z,8.25
2023-02-17T04:56:00.368Z,7.55
2023-02-17T04:58:27.194Z,4.00
2023-02-17T05:00:53.961Z,5.05
2023-02-17T05:03:20.810Z,5.25
2023-02-17T05:05:47.953Z,5.68
2023-02-17T05:08:14.808Z,4.10
2023-02-17T05:10:41.860Z,3.40
2023-02-17T05:13:08.748Z,2.90
2023-02-17T05:15:35.866Z,4.75
2023-02-17T05:18:03.064Z,4.30
2023-02-17T05:20:30.087Z,5.28
2023-02-17T05:22:56.960Z,4.38
2023-02-17T05:25:23.840Z,4.88
2023-02-17T05:27:50.615Z,5.30
2023-02-17T05:30:18.043Z,3.65
2023-02-17T05:32:44.964Z,3.28
2023-02-17T05:35:12.401Z,3.85
2023-02-17T05:37:39.304Z,5.25
2023-02-17T05:40:07.276Z,5.03
2023-02-17T05:42:34.152Z,3.55
2023-02-17T05:45:01.023Z,6.80
2023-02-17T05:47:28.059Z,4.30
2023-02-17T05:49:55.136Z,5.30
2023-02-17T05:52:21.906Z,4.47
2023-02-17T05:54:48.774Z,5.82
2023-02-17T05:57:15.648Z,5.97
2023-02-17T05:59:42.500Z,6.32
2023-02-17T06:02:09.314Z,5.28
2023-02-17T06:04:36.566Z,4.35
2023-02-17T06:07:03.615Z,4.68
2023-02-17T06:09:30.585Z,3.70
2023-02-17T06:11:57.401Z,3.90
2023-02-17T06:14:24.175Z,4.03
2023-02-17T06:16:50.986Z,4.28
2023-02-17T06:19:17.745Z,2.65
2023-02-17T06:21:44.551Z,3.20
2023-02-17T06:24:11.332Z,6.28
2023-02-17T06:26:38.278Z,5.00
2023-02-17T06:29:06.699Z,5.10
2023-02-17T06:31:33.801Z,5.45
2023-02-17T06:34:00.627Z,7.68
2023-02-17T06:36:27.504Z,7.47
2023-02-17T06:38:54.384Z,9.18
2023-02-17T06:41:21.249Z,3.55
2023-02-17T06:43:48.211Z,5.13
2023-02-17T06:46:15.040Z,5.07
2023-02-17T06:48:41.798Z,4.97
2023-02-17T06:51:08.628Z,4.90
2023-02-17T06:53:35.542Z,4.65
2023-02-17T06:56:02.377Z,5.90
2023-02-17T06:58:29.286Z,4.57
2023-02-17T07:00:56.206Z,3.83
2023-02-17T07:03:23.145Z,4.20
2023-02-17T07:05:50.112Z,6.05
2023-02-17T07:08:17.013Z,4.40
2023-02-17T07:10:44.021Z,5.20
2023-02-17T07:13:11.154Z,5.53
2023-02-17T07:15:37.962Z,5.00
2023-02-17T07:18:04.975Z,4.22
2023-02-17T07:20:32.462Z,4.60
2023-02-17T07:23:00.412Z,3.42
2023-02-17T07:25:27.346Z,4.88
2023-02-17T07:27:54.637Z,7.15
2023-02-17T07:30:21.544Z,4.90
2023-02-17T07:32:48.471Z,4.95
2023-02-17T07:35:15.491Z,3.47
2023-02-17T07:37:42.403Z,5.72
2023-02-17T07:40:09.557Z,4.93
2023-02-17T07:42:36.460Z,4.93
2023-02-17T07:45:04.632Z,4.25
2023-02-17T07:47:32.983Z,4.97
2023-02-17T07:49:59.920Z,6.15
2023-02-17T07:52:26.845Z,5.95
2023-02-17T07:54:53.706Z,4.65
2023-02-17T07:57:20.624Z,4.57
2023-02-17T07:59:48.182Z,7.68
2023-02-17T08:02:15.245Z,8.50
2023-02-17T08:04:42.136Z,4.57
2023-02-17T08:07:08.979Z,3.88
2023-02-17T08:09:54.342Z,6.20
2023-02-17T08:12:40.052Z,4.30
2023-02-17T08:15:09.499Z,4.55
2023-02-17T08:17:36.784Z,4.53
2023-02-17T08:20:09.030Z,4.97
2023-02-17T08:22:37.046Z,3.05
2023-02-17T08:25:06.221Z,4.13
2023-02-17T08:27:33.581Z,3.42
2023-02-17T08:30:00.795Z,6.75
2023-02-17T08:32:27.655Z,4.85
2023-02-17T08:34:57.554Z,4.35
2023-02-17T08:37:24.508Z,3.83
2023-02-17T08:39:51.774Z,5.22
2023-02-17T08:42:19.796Z,4.43
2023-02-17T08:44:46.646Z,5.22
2023-02-17T08:47:13.623Z,7.22
2023-02-17T08:49:40.707Z,5.40
2023-02-17T08:52:07.605Z,4.47
2023-02-17T08:54:34.422Z,4.47
2023-02-17T08:57:01.319Z,4.40
2023-02-17T08:59:28.618Z,6.45
2023-02-17T09:01:55.775Z,4.68
2023-02-17T09:04:22.815Z,4.88
2023-02-17T09:06:52.499Z,5.30
2023-02-17T09:09:22.660Z,4.15
2023-02-17T09:11:49.855Z,3.20
2023-02-17T09:14:16.988Z,5.78
2023-02-17T09:16:44.283Z,5.70
2023-02-17T09:19:11.215Z,4.32
2023-02-17T09:21:38.073Z,2.85
2023-02-17T09:24:05.239Z,4.25
2023-02-17T09:26:32.117Z,5.30
2023-02-17T09:28:58.956Z,4.18
2023-02-17T09:31:29.425Z,2.17
2023-02-17T09:33:56.453Z,2.70
2023-02-17T09:36:26.474Z,4.07
2023-02-17T09:38:54.201Z,2.70
2023-02-17T09:41:47.722Z,4.78
2023-02-17T09:44:24.677Z,3.65
2023-02-17T09:47:22.658Z,2.92
2023-02-17T09:50:02.652Z,1.83
2023-02-17T09:53:12.085Z,3.55
2023-02-17T09:55:44.457Z,5.10
2023-02-17T09:58:14.699Z,2.92
2023-02-17T10:00:48.072Z,4.30
2023-02-17T10:03:20.918Z,2.38
2023-02-17T10:05:59.983Z,2.78
2023-02-17T10:08:34.769Z,2.78
2023-02-17T10:11:18.848Z,3.28
2023-02-17T10:13:46.961Z,4.90
2023-02-17T10:16:21.876Z,2.08
2023-02-17T10:19:04.759Z,2.22
2023-02-17T10:21:39.358Z,4.05
2023-02-17T10:24:06.561Z,4.85
2023-02-17T10:26:45.370Z,2.63
2023-02-17T10:29:24.490Z,3.15
2023-02-17T10:32:00.881Z,5.93
2023-02-17T10:35:14.031Z,3.58
2023-02-17T10:37:46.840Z,2.13
2023-02-17T10:40:22.571Z,3.90
2023-02-17T10:42:56.922Z,2.30
2023-02-17T10:45:37.322Z,2.05
2023-02-17T10:48:09.112Z,2.35
2023-02-17T10:50:37.926Z,2.25
2023-02-17T10:53:14.772Z,2.95
2023-02-17T10:55:53.788Z,1.95
2023-02-17T10:58:39.169Z,2.78
2023-02-17T11:01:07.608Z,2.30
2023-02-17T11:03:36.910Z,1.15
2023-02-17T11:06:07.254Z,1.38
2023-02-17T11:08:51.919Z,1.42
2023-02-17T11:11:23.358Z,1.77
2023-02-17T11:14:08.652Z,1.73
2023-02-17T11:16:51.620Z,1.73
2023-02-17T11:19:35.413Z,18.50
2023-02-17T11:22:05.209Z,21.33
2023-02-17T11:24:34.400Z,22.77
2023-02-17T11:27:09.742Z,18.05
2023-02-17T11:29:37.075Z,7.65
2023-02-17T11:32:12.369Z,4.32
2023-02-17T11:34:41.816Z,8.70
2023-02-17T11:37:11.493Z,11.55
2023-02-17T11:39:44.643Z,8.18
2023-02-17T11:42:33.255Z,10.68
2023-02-17T11:45:09.069Z,6.65
2023-02-17T11:47:43.978Z,10.60
2023-02-17T11:50:13.920Z,16.23
2023-02-17T11:53:07.193Z,21.70
2023-02-17T11:56:21.022Z,12.73
2023-02-17T11:59:15.778Z,2.83
2023-02-17T12:02:11.478Z,4.03
2023-02-17T12:04:49.977Z,3.60
2023-02-17T12:07:16.793Z,3.15
2023-02-17T12:10:10.186Z,3.53
2023-02-17T12:13:08.765Z,2.50
2023-02-17T12:15:47.451Z,3.38
2023-02-17T12:18:29.946Z,3.15
2023-02-17T12:20:56.671Z,13.32
2023-02-17T12:24:00.726Z,10.35
2023-02-17T12:26:38.456Z,5.75
2023-02-17T12:29:34.175Z,4.18
2023-02-17T12:32:20.249Z,4.80
2023-02-17T12:35:16.051Z,2.50
2023-02-17T12:38:09.302Z,9.10
2023-02-17T12:40:41.294Z,4.03
2023-02-17T12:43:32.044Z,2.28
2023-02-17T12:46:04.202Z,3.15
2023-02-17T12:48:40.685Z,2.53
2023-02-17T12:51:14.145Z,2.25
2023-02-17T12:53:50.723Z,2.13
2023-02-17T12:56:33.735Z,1.73
2023-02-17T12:59:13.881Z,3.45
2023-02-17T13:01:54.809Z,2.15
2023-02-17T13:04:24.984Z,1.75
2023-02-17T13:07:30.700Z,1.20
2023-02-17T13:09:58.276Z,2.30
2023-02-17T13:12:25.485Z,2.03
2023-02-17T13:15:01.483Z,2.80
2023-02-17T13:17:38.915Z,2.72
2023-02-17T13:20:11.604Z,1.23
2023-02-17T13:22:40.616Z,2.13
2023-02-17T13:25:11.250Z,1.08
2023-02-17T13:27:40.048Z,3.90
2023-02-17T13:30:26.094Z,1.45
2023-02-17T13:33:27.868Z,1.50
2023-02-17T13:35:54.973Z,3.05
2023-02-17T13:38:32.317Z,1.10
2023-02-17T13:41:06.729Z,1.25
2023-02-17T13:43:41.402Z,2.15
2023-02-17T13:46:19.995Z,2.05
2023-02-17T13:48:46.804Z,1.90
2023-02-17T13:51:29.698Z,2.25
2023-02-17T13:53:56.762Z,4.45
2023-02-17T13:56:29.261Z,1.90
2023-02-17T13:59:11.199Z,2.95
2023-02-17T14:01:43.246Z,1.92
2023-02-17T14:04:31.263Z,1.92
2023-02-17T14:07:04.680Z,1.83
2023-02-17T14:09:34.157Z,3.75
2023-02-17T14:12:07.915Z,3.50
2023-02-17T14:14:38.032Z,1.58
2023-02-17T14:17:06.279Z,4.57
2023-02-17T14:19:46.136Z,2.00
2023-02-17T14:22:31.789Z,2.13
2023-02-17T14:25:06.927Z,2.75
2023-02-17T14:27:45.726Z,3.55
2023-02-17T14:30:27.238Z,5.90
2023-02-17T14:33:06.687Z,2.85
2023-02-17T14:35:35.443Z,2.08
2023-02-17T14:38:18.853Z,3.30
2023-02-17T14:40:46.580Z,5.70
2023-02-17T14:43:13.581Z,6.03
2023-02-17T14:45:40.355Z,3.35
2023-02-17T14:48:07.463Z,3.28
2023-02-17T14:50:36.967Z,1.48
2023-02-17T14:53:03.761Z,1.77
2023-02-17T14:55:38.917Z,4.50
2023-02-17T14:58:06.016Z,2.20
2023-02-17T15:00:32.833Z,1.55
2023-02-17T15:02:59.686Z,2.13
2023-02-17T15:05:26.792Z,2.75
2023-02-17T15:07:56.424Z,3.40
2023-02-17T15:10:28.328Z,1.77
2023-02-17T15:12:56.513Z,3.15
2023-02-17T15:15:23.393Z,1.50
2023-02-17T15:17:50.312Z,0.90
2023-02-17T15:20:17.269Z,1.25
2023-02-17T15:22:44.611Z,1.00
2023-02-17T15:25:11.502Z,2.00
2023-02-17T15:27:38.304Z,5.05
2023-02-17T15:30:07.663Z,1.42
2023-02-17T15:32:35.178Z,5.05
2023-02-17T15:35:02.055Z,1.80
2023-02-17T15:37:28.932Z,2.20
2023-02-17T15:39:55.725Z,2.33
2023-02-17T15:42:22.584Z,3.60
2023-02-17T15:44:50.831Z,2.92
2023-02-17T15:47:21.441Z,2.13
2023-02-17T15:49:48.490Z,3.30
2023-02-17T15:52:15.462Z,4.40
2023-02-17T15:54:43.344Z,2.13
2023-02-17T15:57:28.453Z,1.92
2023-02-17T15:59:55.606Z,2.97
2023-02-17T16:02:25.208Z,3.00
2023-02-17T16:04:52.055Z,1.88
2023-02-17T16:07:18.974Z,1.75
2023-02-17T16:09:46.280Z,1.52
2023-02-17T16:12:26.545Z,1.70
2023-02-17T16:14:53.929Z,2.50
2023-02-17T16:17:20.848Z,1.80
2023-02-17T16:19:47.672Z,1.48
2023-02-17T16:22:14.739Z,2.88
2023-02-17T16:24:41.593Z,2.85
2023-02-17T16:27:11.824Z,1.67
2023-02-17T16:29:39.196Z,1.92
2023-02-17T16:32:06.330Z,1.48
2023-02-17T16:34:34.625Z,2.75
2023-02-17T16:37:04.610Z,4.75
2023-02-17T16:39:31.671Z,2.38
2023-02-17T16:41:58.538Z,2.40
2023-02-17T16:44:25.684Z,2.83
2023-02-17T16:46:55.159Z,2.90
2023-02-17T16:49:31.876Z,3.22
2023-02-17T16:52:00.410Z,3.97
2023-02-17T16:54:27.260Z,4.88
2023-02-17T16:56:55.022Z,5.57
2023-02-17T16:59:24.402Z,3.55
2023-02-17T17:01:53.346Z,5.45
2023-02-17T17:04:21.928Z,4.55
2023-02-17T17:06:51.671Z,3.25
2023-02-17T17:09:21.209Z,3.67
2023-02-17T17:11:48.947Z,5.30
2023-02-17T17:14:16.286Z,3.30
2023-02-17T17:16:50.894Z,2.20
2023-02-17T17:19:18.261Z,2.33
2023-02-17T17:21:45.314Z,1.92
2023-02-17T17:24:12.108Z,4.53
2023-02-17T17:26:43.907Z,2.53
2023-02-17T17:29:15.922Z,4.53
2023-02-17T17:31:42.939Z,3.35
2023-02-17T17:34:09.802Z,5.68
2023-02-17T17:36:40.177Z,4.25
2023-02-17T17:39:13.381Z,3.92
2023-02-17T17:41:40.387Z,3.03
2023-02-17T17:44:08.923Z,3.35
2023-02-17T17:46:38.206Z,3.00
2023-02-17T17:49:06.184Z,5.15
2023-02-17T17:51:35.030Z,5.03
2023-02-17T17:54:01.889Z,3.90
2023-02-17T17:56:31.434Z,4.47
2023-02-17T17:59:00.523Z,4.03
2023-02-17T18:01:27.476Z,10.48
2023-02-17T18:03:55.167Z,6.32
2023-02-17T18:06:26.566Z,4.00
2023-02-17T18:08:56.728Z,4.18
2023-02-17T18:11:24.813Z,3.28
2023-02-17T18:13:54.680Z,3.80
2023-02-17T18:16:24.101Z,2.53
2023-02-17T18:18:51.284Z,3.47
2023-02-17T18:21:18.197Z,2.60
2023-02-17T18:23:45.126Z,3.47
2023-02-17T18:26:12.775Z,3.83
2023-02-17T18:28:40.433Z,2.75
2023-02-17T18:31:09.426Z,3.58
2023-02-17T18:33:37.154Z,3.55
2023-02-17T18:36:09.261Z,4.65
2023-02-17T18:38:36.444Z,4.53
2023-02-17T18:41:04.005Z,6.55
2023-02-17T18:43:31.273Z,4.32
2023-02-17T18:45:58.727Z,3.03
2023-02-17T18:48:25.839Z,2.55
2023-02-17T18:50:52.677Z,3.83
2023-02-17T18:53:19.532Z,3.45
2023-02-17T18:55:46.288Z,2.58
2023-02-17T18:58:13.102Z,2.95
2023-02-17T19:00:39.949Z,3.40
2023-02-17T19:03:06.837Z,4.05
2023-02-17T19:05:33.866Z,3.92
2023-02-17T19:08:00.721Z,4.28
2023-02-17T19:10:27.524Z,7.18
2023-02-17T19:12:54.509Z,3.88
2023-02-17T19:15:21.316Z,4.35
2023-02-17T19:17:48.862Z,3.25
2023-02-17T19:20:17.136Z,12.85
2023-02-17T19:22:44.349Z,16.98
2023-02-17T19:25:11.243Z,9.82
2023-02-17T19:27:41.686Z,8.25
2023-02-17T19:30:10.047Z,6.10
2023-02-17T19:32:36.961Z,4.88
2023-02-17T19:35:04.421Z,4.88
2023-02-17T19:37:31.297Z,4.80
2023-02-17T19:39:58.095Z,5.10
2023-02-17T19:42:25.432Z,11.85
2023-02-17T19:44:52.718Z,7.30
2023-02-17T19:47:19.704Z,6.10
2023-02-17T19:49:46.505Z,4.20
2023-02-17T19:52:13.755Z,2.60
2023-02-17T19:54:40.804Z,1.70
2023-02-17T19:57:07.850Z,2.38
2023-02-17T19:59:34.790Z,3.17
2023-02-17T20:02:01.730Z,1.92
2023-02-17T20:04:28.994Z,2.20
2023-02-17T20:06:58.198Z,3.13
2023-02-17T20:09:25.346Z,1.13
2023-02-17T20:11:53.222Z,1.27
2023-02-17T20:14:20.855Z,1.35
2023-02-17T20:16:48.590Z,1.30
2023-02-17T20:19:15.467Z,1.92
2023-02-17T20:21:44.753Z,1.35
2023-02-17T20:24:14.968Z,1.35
2023-02-17T20:26:45.250Z,2.08
2023-02-17T20:29:14.019Z,3.47
2023-02-17T20:31:41.817Z,1.50
2023-02-17T20:34:17.606Z,0.50
2023-02-17T20:36:44.449Z,1.02
2023-02-17T20:39:11.243Z,0.80
2023-02-17T20:41:38.366Z,1.00
2023-02-17T20:44:05.222Z,1.02
2023-02-17T20:46:32.254Z,1.50
2023-02-17T20:48:59.114Z,1.23
2023-02-17T20:51:25.961Z,1.35
2023-02-17T20:53:53.261Z,1.08
2023-02-17T20:56:22.902Z,1.23
2023-02-17T20:58:50.917Z,1.50
2023-02-17T21:01:18.218Z,0.73
2023-02-17T21:03:45.770Z,1.48
2023-02-17T21:06:48.230Z,2.80
2023-02-17T21:09:19.038Z,3.00
2023-02-17T21:11:46.839Z,5.60
2023-02-17T21:14:14.253Z,5.28
2023-02-17T21:16:41.612Z,3.78
2023-02-17T21:19:08.960Z,4.72
2023-02-17T21:21:36.261Z,3.20
2023-02-17T21:24:04.267Z,2.67
2023-02-17T21:26:32.847Z,2.65
2023-02-17T21:29:00.112Z,1.35
2023-02-17T21:31:29.046Z,2.17
2023-02-17T21:33:57.793Z,3.35
2023-02-17T21:36:27.454Z,2.35
2023-02-17T21:38:55.950Z,5.18
2023-02-17T21:41:24.062Z,2.05
2023-02-17T21:44:10.067Z,1.98
2023-02-17T21:46:37.403Z,2.10
2023-02-17T21:49:04.279Z,2.50
2023-02-17T21:51:31.480Z,1.05
2023-02-17T21:53:59.412Z,1.15
2023-02-17T21:56:26.841Z,1.38
2023-02-17T21:58:54.982Z,1.92
2023-02-17T22:01:24.309Z,1.17
2023-02-17T22:03:51.919Z,2.17
2023-02-17T22:06:23.536Z,2.00
2023-02-17T22:08:50.965Z,2.33
2023-02-17T22:11:20.554Z,3.03
2023-02-17T22:13:53.438Z,2.22
2023-02-17T22:16:20.541Z,3.75
2023-02-17T22:18:47.606Z,2.38
2023-02-17T22:21:15.008Z,3.25
2023-02-17T22:23:43.673Z,2.05
2023-02-17T22:26:18.439Z,3.10
2023-02-17T22:28:45.751Z,2.55
2023-02-17T22:31:19.304Z,5.25
2023-02-17T22:33:46.441Z,3.83
2023-02-17T22:36:16.624Z,4.47
2023-02-17T22:38:44.228Z,4.07
2023-02-17T22:41:13.566Z,3.47
2023-02-17T22:43:41.914Z,3.97
2023-02-17T22:46:10.436Z,8.70
2023-02-17T22:48:38.753Z,6.68
2023-02-17T22:51:07.553Z,5.28
2023-02-17T22:53:35.768Z,5.07
2023-02-17T22:56:03.785Z,3.60
2023-02-17T22:58:31.060Z,4.70
2023-02-17T23:01:14.506Z,4.68
2023-02-17T23:03:42.410Z,2.55
2023-02-17T23:06:15.770Z,2.53
2023-02-17T23:08:43.298Z,3.38
2023-02-17T23:11:12.844Z,2.55
2023-02-17T23:13:39.845Z,1.60
2023-02-17T23:16:08.128Z,2.08
2023-02-17T23:18:36.561Z,1.88
2023-02-17T23:21:09.881Z,1.83
2023-02-17T23:23:36.822Z,1.52
2023-02-17T23:26:03.999Z,2.03
2023-02-17T23:28:31.518Z,2.08
2023-02-17T23:30:59.083Z,3.20
2023-02-17T23:33:25.885Z,2.38
2023-02-17T23:35:52.768Z,2.25
2023-02-17T23:38:21.395Z,2.53
2023-02-17T23:40:51.707Z,1.75
2023-02-17T23:43:19.538Z,1.92
2023-02-17T23:45:46.472Z,1.23
2023-02-17T23:48:13.686Z,1.60
2023-02-17T23:50:41.335Z,2.47
2023-02-17T23:53:08.912Z,2.58
2023-02-17T23:55:35.777Z,2.92
2023-02-17T23:58:02.674Z,2.00
